﻿ProjectID	SampleID	SampleType	TaxonomyID	UniqCodeType	UniqCode	SampleName	ScientificName	CommonName	CollectionYear	CollectionMonth	CollectionDay	SamplingTimeStartEnd	SamplingTimeAMPM	SamplingDuration	WeatherStartEnd	CollectionRegion	CollectionCountry	CollectionArea	CollectionLatitudeFrom	CollectionLatitudeTo	CollectionLongitudeFrom	CollectionLongitudeTo	Sex	TissueOrgan	TissueLipid	TissueMoist	Weight	WeightUnit	Length	LengthUnit	LengthType	GrowthStage	Age	Disease	TemperatureStartEnd	WaterTemperatureStartEnd	pH	DO	EC	EC_temp	Salinity	SS	WaterDepthM	TransparencyM	WaterColor	SedimentTemperatureStartEnd	SedimentDepthM	SedimentAppearance	SedimentColor	SedimentSurfaceColor	SedimentOdor	SedimentImpurities	SedimentMoistureOnSiteAnalysis	IgnitionLossOnSiteAnalysis	SoilDepthM	FlowRate	MeanPM10	MeanTotalSuspendedParticles	HumidityStartEnd	WindDirectionStartEnd	WindSpeedMSStartEnd	AmountOfCollectedAirStartEnd	Remarks	RegisterDate	UpdateDate
PRA000045	SAA002520	ST015				R-01	Water	"River water"	2013	4	18					Asia	Japan	"Sasame Bridge, Ara Riv (on the right bank)"	35.79663889		139.65																					7.2																						2017/9/13	2019/7/18
PRA000045	SAA002521	ST015				R-02	Water	"River water"	2013	4	26					Asia	Japan	"Jisui Bridge, Ara Riv"	35.88894444		139.5649444																					5																						2017/9/13	2019/7/18
PRA000045	SAA002522	ST015				R-03	Water	"River water"	2013	4	26					Asia	Japan	"Junction of Nakatsu Riv, Ara Riv"	35.948		138.9366389																					0.2																						2017/9/13	2019/7/18
PRA000045	SAA002523	ST015				R-04	Water	"River water"	2013	4	18					Asia	Japan	"Shiba Riv"	35.85880556		139.7168611																					20																						2017/9/13	2019/7/18
PRA000045	SAA002524	ST015				R-05	Water	"River water"	2013	4	18					Asia	Japan	"Shin-shiba Riv"	35.78336111		139.7515																					11.2																						2017/9/13	2019/7/18
PRA000045	SAA002525	ST015				R-06	Water	"River water"	2013	4	18					Asia	Japan	"Kamo Riv"	35.85122222		139.6118611																					26																						2017/9/13	2019/7/18
PRA000045	SAA002526	ST015				R-07	Water	"River water"	2013	4	26					Asia	Japan	"Iruma Riv"	35.93844444		139.5386667																					6.7																						2017/9/13	2019/7/18
PRA000045	SAA002527	ST015				R-08	Water	"River water"	2013	4	26					Asia	Japan	"Oppe Riv"	35.95733333		139.4753611																					11.5																						2017/9/13	2019/7/18
PRA000045	SAA002528	ST015				R-09	Water	"River water"	2013	4	26					Asia	Japan	"Toki Riv"	36.00877778		139.4042222																					1.9																						2017/9/13	2019/7/18
PRA000045	SAA002529	ST015				R-10	Water	"River water"	2013	4	30					Asia	Japan	"Tsuki Riv"	36.04994444		139.2761944																					0.7																						2017/9/13	2019/7/18
PRA000045	SAA002530	ST015				R-11	Water	"River water"	2013	4	26					Asia	Japan	"Koma Riv"	35.95875		139.3881111																					4.6																						2017/9/13	2019/7/18
PRA000045	SAA002531	ST015				R-12	Water	"River water"	2013	4	26					Asia	Japan	"Koaze Riv"	35.94469444		139.4630278																					5.3																						2017/9/13	2019/7/18
PRA000045	SAA002532	ST015				R-13	Water	"River water"	2013	4	26					Asia	Japan	"Kasumi Riv"	35.84141667		139.3891944																					3.2																						2017/9/13	2019/7/18
PRA000045	SAA002533	ST015				R-14	Water	"River water"	2013	4	26					Asia	Japan	"Naruki Riv"	35.83441667		139.3255278																					0.8																						2017/9/13	2019/7/18
PRA000045	SAA002534	ST015				R-15	Water	"River water"	2013	4	26					Asia	Japan	"Ichino Riv"	36.015		139.4736944																					13.8																						2017/9/13	2019/7/18
PRA000045	SAA002535	ST015				R-16	Water	"River water"	2013	4	26					Asia	Japan	"Wadayoshino Riv"	36.07891667		139.4397778																					20.2																						2017/9/13	2019/7/18
PRA000045	SAA002536	ST015				R-17	Water	"River water"	2013	4	26					Asia	Japan	"Akabira Riv"	36.00619444		139.0410278																					0.3																						2017/9/13	2019/7/18
PRA000045	SAA002537	ST015				R-18	Water	"River water"	2013	4	26					Asia	Japan	"Yokoze Riv"	36.02613889		139.1085556																					0.8																						2017/9/13	2019/7/18
PRA000045	SAA002538	ST015				R-19	Water	"River water"	2013	4	11					Asia	Japan	"Naka Riv"	35.84472222		139.8450833																					20.6																						2017/9/13	2019/7/18
PRA000045	SAA002539	ST015				R-20	Water	"River water"	2013	4	11					Asia	Japan	"Ayase Riv"	35.78886111		139.8310833																					9.6																						2017/9/13	2019/7/18
PRA000045	SAA002540	ST015				R-21	Water	"River water"	2013	4	11					Asia	Japan	"Furu-ayase Riv"	35.83213889		139.8133056																					13.2																						2017/9/13	2019/7/18
PRA000045	SAA002541	ST015				R-22	Water	"River water"	2013	4	11					Asia	Japan	"Ohba Riv"	35.79172222		139.8630278																					19																						2017/9/13	2019/7/18
PRA000045	SAA002542	ST015				R-23	Water	"River water"	2013	4	11					Asia	Japan	"Motoara Riv"	35.88380556		139.83925																					10																						2017/9/13	2019/7/18
PRA000045	SAA002543	ST015				R-24	Water	"River water"	2013	4	11					Asia	Japan	"Niigata Riv"	35.89277778		139.8315556																					15.8																						2017/9/13	2019/7/18
PRA000045	SAA002544	ST015				R-25	Water	"River water"	2013	4	11					Asia	Japan	"Ohotoshi-furutone Riv"	35.90683333		139.8253889																					10.2																						2017/9/13	2019/7/18
PRA000045	SAA002545	ST015				R-26	Water	"River water"	2013	4	18					Asia	Japan	"Shingashi Riv"	35.79341667		139.6484444																					3.8																						2017/9/13	2019/7/18
PRA000045	SAA002546	ST015				R-27	Water	"River water"	2013	4	18					Asia	Japan	"Shirako Riv"	35.79333333		139.6436111																					3.3																						2017/9/13	2019/7/18
PRA000045	SAA002547	ST015				R-28	Water	"River water"	2013	4	18					Asia	Japan	"Kurome Riv"	35.80797222		139.6115833																					6.3																						2017/9/13	2019/7/18
PRA000045	SAA002548	ST015				R-29	Water	"River water"	2013	4	18					Asia	Japan	"Yanase Riv"	35.83227778		139.5834444																					2.7																						2017/9/13	2019/7/18
PRA000045	SAA002549	ST015				R-30	Water	"River water"	2013	4	26					Asia	Japan	"Furo Riv"	35.89277778		139.4940278																					2.8																						2017/9/13	2019/7/18
PRA000045	SAA002550	ST015				R-31	Water	"River water"	2013	4	23					Asia	Japan	"Tonegawa Bridge, Tone Riv"	36.14044444		139.7058611																					8																						2017/9/13	2019/7/18
PRA000045	SAA002551	ST015				R-32	Water	"River water"	2013	4	23					Asia	Japan	"Tone-ohzeki intake weir, Tone Riv"	36.18411111		139.4748056																					6.2																						2017/9/13	2019/7/18
PRA000045	SAA002552	ST015				R-33	Water	"River water"	2013	4	11					Asia	Japan	"Nagareyama Bridge, Edo Riv"	35.84244444		139.8933611																					12.4																						2017/9/13	2019/7/18
PRA000045	SAA002553	ST015				R-34	Water	"River water"	2013	4	23					Asia	Japan	"Fuku Riv"	36.19944444		139.3998333																					14.2																						2017/9/13	2019/7/18
PRA000045	SAA002554	ST015				R-35	Water	"River water"	2013	4	23					Asia	Japan	"Koyama Riv"	36.22755556		139.3115556																					3.3																						2017/9/13	2019/7/18
PRA000045	SAA002555	ST015				R-36	Water	"River water"	2013	4	23					Asia	Japan	"Karasawa Riv"	36.21072222		139.2938333																					6.6																						2017/9/13	2019/7/18
PRA000045	SAA002556	ST015				R-37	Water	"River water"	2013	4	23					Asia	Japan	"Motokoyama Riv"	36.23380556		139.2129722																					4.2																						2017/9/13	2019/7/18
PRA000045	SAA002557	ST015				R-38	Water	"River water"	2013	4	23					Asia	Japan	"Kanna Riv"	36.26477778		139.1235556																					1.7																						2017/9/13	2019/7/18
PRA000045	SAA002558	ST015				R-39	Water	"River water"	2013	4	23					Asia	Japan	"Ishida Riv"	36.24030556		139.3820278																					6.1																						2017/9/13	2019/7/18
PRA000045	SAA002559	ST015				R-40	Water	"River water"	2012	11	2					Asia	Japan	"Kasai Bridge, Ara Riv"	35.67102778		139.8487222																					32																						2017/9/13	2019/7/18
PRA000045	SAA002560	ST015				R-41	Water	"River water"	2012	11	2					Asia	Japan	"Sasame Bridge, Ara Riv (on the left bank)"	35.80069444		139.6478333																					9																						2017/9/13	2019/7/18
PRA000045	SAA002561	ST015				R-42	Water	"River water"	2012	10	31					Asia	Japan	"Shin-Katsushika Bridge, Edo Riv"	35.76822222		139.8789722																					6																						2017/9/13	2019/7/18
PRA000045	SAA002562	ST015				R-43	Water	"River water"	2012	10	31					Asia	Japan	"Ryogoku Bridge, Sumida Riv"	35.694258		139.788704																					7																						2017/09/13	2019/07/18
PRA000045	SAA002563	ST015				R-44	Water	"River water"	2012	11	2					Asia	Japan	"Taishi Bridge, Tama Riv"	35.54355556		139.7425556																					2																						2017/9/13	2019/7/18
PRA000045	SAA002564	ST015				R-45	Water	"River water"	2012	10	31					Asia	Japan	"Tamagawara-bashi Bridge, Riv. Tama, Inagi city, Tokyo"	35.643876		139.525471																					2																						2017/09/13	2019/07/18
PRA000045	SAA002565	ST015				R-46	Water	"River water"	2012	11	1					Asia	Japan	"Yoro-ohashi Bridge, Yoro Riv"	35.53216667		140.0778056																					6																						2017/9/13	2019/7/18
PRA000045	SAA002566	ST015				R-47	Water	"River water"	2012	11	1					Asia	Japan	"Asai Bridge, Yoro Riv"	35.46719444		140.1155833																					11																						2017/9/13	2019/7/18
PRA000045	SAA002567	ST015				R-48	Water	"River water"	2012	11	1					Asia	Japan	"Rinkai-Tsurumi Bridge, Tsurumi Riv"	35.5		139.6771944																					2																						2017/9/13	2019/7/18
PRA000045	SAA002568	ST019				E-01	Water	"Sewage treatment plant (STP) effluent"	2013	7	25					Asia	Japan	Saitama/Tokyo	35.50138889	36.28333333	138.7113889	139.9186111																				6.5																					"Large-Scale STP; Type of treatment: Primary and secondary, Conventional activated sludge; Population served (x1000): 1730; Sewage treatment volume (x1000 m<sup>3</sup>/y): 228292"	2017/9/13	2019/7/18
PRA000045	SAA002570	ST019				E-03	Water	"Sewage treatment plant (STP) effluent"	2013	9	10					Asia	Japan	Saitama/Tokyo	35.50138889	36.28333333	138.7113889	139.9186111																				1.4																					"Large-Scale STP; Type of treatment: Primary and secondary, Conventional activated sludge; Population served (x1000): 1487; Sewage treatment volume (x1000 m<sup>3</sup>/y): 183083"	2017/9/13	2019/7/18
PRA000045	SAA002571	ST019				E-04	Water	"Sewage treatment plant (STP) effluent"	2013	9	10					Asia	Japan	Saitama/Tokyo	35.50138889	36.28333333	138.7113889	139.9186111																				0.2																					"Large-Scale STP; Type of treatment: Primary and secondary, Conventional activated sludge; Population served (x1000): 88; Sewage treatment volume (x1000 m<sup>3</sup>/y): 17518"	2017/9/13	2019/7/18
PRA000045	SAA002572	ST019				E-05	Water	"Sewage treatment plant (STP) effluent"	2013	10	3					Asia	Japan	Saitama/Tokyo	35.50138889	36.28333333	138.7113889	139.9186111																				0.6																					"Large-Scale STP; Type of treatment: Primary and secondary, Conventional activated sludge; Population served (x1000): 1249; Sewage treatment volume (x1000 m<sup>3</sup>/y): 140726"	2017/9/13	2019/7/18
PRA000045	SAA002573	ST019				E-06	Water	"Sewage treatment plant (STP) effluent"	2013	9	18					Asia	Japan	Saitama/Tokyo	35.50138889	36.28333333	138.7113889	139.9186111																				1.2																					"Large-Scale STP; Type of treatment: Primary and secondary, Conventional activated sludge; Population served (x1000): 111; Sewage treatment volume (x1000 m<sup>3</sup>/y): 16276"	2017/9/13	2019/7/18
PRA000045	SAA002575	ST019				E-08	Water	"Sewage treatment plant (STP) effluent"	2013	10	9					Asia	Japan	Saitama/Tokyo	35.50138889	36.28333333	138.7113889	139.9186111																				0.7																					"Large-Scale STP; Type of treatment: Primary and secondary, Oxidation ditch; Population served (x1000): 15; Sewage treatment volume (x1000 m<sup>3</sup>/y): 1455"	2017/9/13	2019/7/18
PRA000045	SAA002577	ST019				E-10	Water	"Sewage treatment plant (STP) effluent"	2013	6	23					Asia	Japan	Saitama/Tokyo	35.50138889	36.28333333	138.7113889	139.9186111																				2.3																					"Large-Scale STP; Type of treatment: Primary and secondary, Conventional activated sludge; Population served (x1000):727; Sewage treatment volume (x1000 m<sup>3</sup>/y): 87890"	2017/9/13	2019/7/18
PRA000045	SAA002578	ST019				E-11	Water	"Sewage treatment plant (STP) effluent"	2013	2	14					Asia	Japan	Saitama/Tokyo	35.50138889	36.28333333	138.7113889	139.9186111																				3.3																					"Large-Scale STP; Type of treatment: Primary and secondary, Conventional activated sludge; Population served (x1000): 11; Sewage treatment volume (x1000 m<sup>3</sup>/y): 5630"	2017/9/13	2019/7/18
PRA000045	SAA002580	ST019				E-13	Water	"Sewage treatment plant (STP) effluent"	2013	9	12					Asia	Japan	Saitama/Tokyo	35.50138889	36.28333333	138.7113889	139.9186111																				1.9																					"Large-Scale STP; Type of treatment: Primary and secondary, Conventional activated sludge; Population served (x1000): 49; Sewage treatment volume (x1000 m<sup>3</sup>/y): 6143"	2017/9/13	2019/7/18
PRA000045	SAA002581	ST019				E-14	Water	"Sewage treatment plant (STP) effluent"	2014	10	28					Asia	Japan	Saitama/Tokyo	35.50138889	36.28333333	138.7113889	139.9186111																				4																					"Large-Scale STP; Type of treatment: Primary and secondary, Conventional activated sludge; Population served (x1000): 57; Sewage treatment volume (x1000 m<sup>3</sup>/y): 8172"	2017/9/13	2019/7/18
PRA000045	SAA002582	ST019				E-15	Water	"Sewage treatment plant (STP) effluent"	2015	1	8					Asia	Japan	Saitama/Tokyo	35.50138889	36.28333333	138.7113889	139.9186111																				1.5																					"Large-Scale STP; Type of treatment: Primary and secondary, Conventional activated sludge; Population served (x1000): 650; Sewage treatment volume (x1000 m<sup>3</sup>/y): 68123"	2017/9/13	2019/7/18
PRA000045	SAA002583	ST019				E-16	Water	"Sewage treatment plant (STP) effluent"	2014	10	17					Asia	Japan	Saitama/Tokyo	35.50138889	36.28333333	138.7113889	139.9186111																				4.4																					"Large-Scale STP; Type of treatment: Primary and secondary, Conventional activated sludge; Population served (x1000): 757; Sewage treatment volume (x1000 m<sup>3</sup>/y): 126144"	2017/9/13	2019/7/18
PRA000045	SAA002584	ST019				E-17	Water	"Sewage treatment plant (STP) effluent"	2014	10	17					Asia	Japan	Saitama/Tokyo	35.50138889	36.28333333	138.7113889	139.9186111																																									"Large-Scale STP; Type of treatment: Primary and secondary, Conventional activated sludge; Population served (x1000): 811; Sewage treatment volume (x1000 m<sup>3</sup>/y): 183579; SS(mg/L): NA"	2017/9/13	2019/7/18
PRA000045	SAA002585	ST019				E-18	Water	"Sewage treatment plant (STP) effluent"	2014	3	3					Asia	Japan	Saitama/Tokyo	35.50138889	36.28333333	138.7113889	139.9186111																				2																					"Large-Scale STP; Type of treatment: Primary and secondary, Conventional activated sludge; Population served (x1000): 498; Sewage treatment volume (x1000 m<sup>3</sup>/y): 85064"	2017/9/13	2019/7/18
PRA000045	SAA002586	ST019				E-19	Water	"Sewage treatment plant (STP) effluent"	2012	11	26					Asia	Japan	Saitama/Tokyo	35.50138889	36.28333333	138.7113889	139.9186111																				1.2																					"Small-Scale STP; Type of treatment: Primary and secondary, Oxidation ditch; Population served (x1000): 0.94; Sewage treatment volume (x1000 m<sup>3</sup>/y): 47"	2017/9/13	2019/7/18
PRA000045	SAA002587	ST019				E-20	Water	"Sewage treatment plant (STP) effluent"	2012	10	5					Asia	Japan	Saitama/Tokyo	35.50138889	36.28333333	138.7113889	139.9186111																																									"Small-Scale STP; Type of treatment: Primary and secondary, Oxidation ditch; Population served (x1000): 0.88; Sewage treatment volume (x1000 m<sup>3</sup>/y): 80; SS(mg/L): NA"	2017/9/13	2019/7/18
PRA000045	SAA002588	ST019				E-21	Water	"Sewage treatment plant (STP) effluent"	2012	11	28					Asia	Japan	Saitama/Tokyo	35.50138889	36.28333333	138.7113889	139.9186111																				2.4																					"Small-Scale STP; Type of treatment: Primary and secondary, Intermittent aeration/activated sludge; Population served (x1000): 0.73; Sewage treatment volume (x1000 m<sup>3</sup>/y): 112"	2017/9/13	2019/7/18
PRA000045	SAA002589	ST019				E-22	Water	"Sewage treatment plant (STP) effluent"	2012	11	28					Asia	Japan	Saitama/Tokyo	35.50138889	36.28333333	138.7113889	139.9186111																				2.3																					"Small-Scale STP; Type of treatment: Primary and secondary, Membrane separation activated sludge; Population served (x1000): 0.95; Sewage treatment volume (x1000 m<sup>3</sup>/y): 108"	2017/9/13	2019/7/18
PRA000045	SAA002590	ST019				E-23	Water	"Sewage treatment plant (STP) effluent"	2012	11	26					Asia	Japan	Saitama/Tokyo	35.50138889	36.28333333	138.7113889	139.9186111																				0.5																					"Small-Scale STP; Type of treatment: Primary and secondary, Intermittent aeration; Population served (x1000): 0.71; Sewage treatment volume (x1000 m<sup>3</sup>/y): 69"	2017/9/13	2019/7/18
PRA000045	SAA002591	ST019				E-24	Water	"Sewage treatment plant (STP) effluent"	2012	11	26					Asia	Japan	Saitama/Tokyo	35.50138889	36.28333333	138.7113889	139.9186111																				2.7																					"Small-Scale STP; Type of treatment: Primary and secondary, Contact aeration/activated sludge; Population served (x1000): 0.93; Sewage treatment volume (x1000 m<sup>3</sup>/y): 142"	2017/9/13	2019/7/18
PRA000045	SAA002592	ST019				E-25	Water	"Sewage treatment plant (STP) effluent"	2012	11	28					Asia	Japan	Saitama/Tokyo	35.50138889	36.28333333	138.7113889	139.9186111																				7.8																					"Small-Scale STP; Type of treatment: Primary and secondary, Contact aeration/activated sludge; Population served (x1000): 0.87; Sewage treatment volume (x1000 m<sup>3</sup>/y): 129"	2017/9/13	2019/7/18
PRA000045	SAA002576	ST019				E-09	Water	"Sewage treatment plant (STP) effluent"	2012	12	10					Asia	Japan	Saitama/Tokyo	35.50138889	36.28333333	138.7113889	139.9186111																				1.1																					"Collected on 2012/12/10 & 2013/10/9; Large-Scale STP; Type of treatment: Primary and secondary, Oxidation ditch; Population served (x1000): 34; Sewage treatment volume (x1000 m<sup>3</sup>/y): 3840; SS (mg/L): 1.1 (mean)"	2017/9/13	2019/7/18
PRA000045	SAA002569	ST019				E-02	Water	"Sewage treatment plant (STP) effluent"	2013							Asia	Japan	Saitama/Tokyo	35.50138889	36.28333333	138.7113889	139.9186111																				3.1																					"Collected Jan-Dec 2013(n=12); Large-Scale STP; Type of treatment: Primary and secondary, Conventional activated sludge; Population served (x1000): 323; Sewage treatment volume (x1000 m<sup>3</sup>/y): 48804; SS (mg/L): mean value"	2017/9/13	2019/7/18
PRA000045	SAA002574	ST019				E-07	Water	"Sewage treatment plant (STP) effluent"	2012	10	11					Asia	Japan	Saitama/Tokyo	35.50138889	36.28333333	138.7113889	139.9186111																				2																					"Collected on 2012/10/12 & 2013/9/26; Large-Scale STP; Type of treatment: Primary and secondary, Conventional activated sludge; Population served (x1000): 44; Sewage treatment volume (x1000 m<sup>3</sup>/y): 4783; SS (mg/L): mean value"	2017/9/13	2019/7/18
PRA000045	SAA002579	ST019				E-12	Water	"Sewage treatment plant (STP) effluent"	2013	10	29					Asia	Japan	Saitama/Tokyo	35.50138889	36.28333333	138.7113889	139.9186111																				12.4																					"Collected on 2013/10/29 & 2014/9/11; Large-Scale STP; Type of treatment: Primary and secondary, Conventional activated sludge; Population served (x1000): 33; Sewage treatment volume (x1000 m<sup>3</sup>/y): 7255; SS (mg/L): mean value"	2017/9/13	2019/7/18
